createdAt,value
2022-11-29T00:01:41.032Z,90.93
2022-11-29T00:04:09.359Z,91.16
2022-11-29T00:06:38.402Z,91.21
2022-11-29T00:09:11.795Z,91.16
2022-11-29T00:12:00.276Z,91.43
2022-11-29T00:14:29.307Z,91.66
2022-11-29T00:17:02.219Z,91.73
2022-11-29T00:19:33.210Z,91.98
2022-11-29T00:22:02.589Z,92.49
2022-11-29T00:24:32.690Z,92.60
2022-11-29T00:27:01.243Z,92.44
2022-11-29T00:29:30.308Z,92.25
2022-11-29T00:31:59.045Z,92.27
2022-11-29T00:34:27.179Z,92.05
2022-11-29T00:36:55.136Z,92.14
2022-11-29T00:39:23.640Z,92.27
2022-11-29T00:41:51.882Z,92.07
2022-11-29T00:44:20.727Z,91.96
2022-11-29T00:46:50.164Z,91.89
2022-11-29T00:49:18.634Z,91.89
2022-11-29T00:51:47.013Z,92.36
2022-11-29T00:54:15.316Z,92.96
2022-11-29T00:56:44.342Z,92.97
2022-11-29T00:59:12.481Z,92.91
2022-11-29T01:01:40.634Z,92.95
2022-11-29T01:04:08.914Z,92.81
2022-11-29T01:06:37.326Z,92.50
2022-11-29T01:09:06.015Z,92.24
2022-11-29T01:11:35.451Z,92.01
2022-11-29T01:14:04.385Z,91.96
2022-11-29T01:16:32.974Z,91.90
2022-11-29T01:19:01.359Z,92.03
2022-11-29T01:21:29.885Z,92.02
2022-11-29T01:24:01.791Z,91.98
2022-11-29T01:26:30.797Z,91.88
2022-11-29T01:28:59.382Z,91.92
2022-11-29T01:31:36.432Z,91.97
2022-11-29T01:34:06.262Z,92.59
2022-11-29T01:36:35.497Z,92.86
2022-11-29T01:39:06.070Z,92.73
2022-11-29T01:41:36.633Z,92.89
2022-11-29T01:44:26.893Z,93.04
2022-11-29T01:46:56.119Z,92.90
2022-11-29T01:49:29.756Z,92.92
2022-11-29T01:52:13.427Z,92.72
2022-11-29T01:54:47.301Z,92.68
2022-11-29T01:57:17.287Z,92.58
2022-11-29T01:59:54.890Z,92.52
2022-11-29T02:03:01.960Z,92.42
2022-11-29T02:05:30.274Z,92.41
2022-11-29T02:07:59.279Z,92.31
2022-11-29T02:10:49.218Z,92.60
2022-11-29T02:13:26.201Z,93.09
2022-11-29T02:16:04.071Z,93.12
2022-11-29T02:19:13.226Z,93.45
2022-11-29T02:21:57.407Z,93.51
2022-11-29T02:24:48.500Z,93.53
2022-11-29T02:27:40.611Z,93.54
2022-11-29T02:30:26.699Z,93.46
2022-11-29T02:33:29.599Z,93.43
2022-11-29T02:36:16.279Z,93.40
2022-11-29T02:39:08.973Z,93.53
2022-11-29T02:42:14.086Z,93.61
2022-11-29T02:44:45.218Z,93.59
2022-11-29T02:47:37.923Z,93.48
2022-11-29T02:50:38.787Z,93.50
2022-11-29T02:53:30.877Z,93.48
2022-11-29T02:56:01.915Z,93.95
2022-11-29T02:59:04.368Z,94.15
2022-11-29T03:02:07.081Z,94.06
2022-11-29T03:04:44.187Z,94.15
2022-11-29T03:07:35.353Z,94.18
2022-11-29T03:10:12.579Z,94.33
2022-11-29T03:12:44.745Z,94.39
2022-11-29T03:15:21.857Z,94.48
2022-11-29T03:18:14.584Z,94.48
2022-11-29T03:21:18.054Z,94.47
2022-11-29T03:23:51.447Z,94.58
2022-11-29T03:26:46.319Z,94.88
2022-11-29T03:29:58.842Z,94.76
2022-11-29T03:32:35.686Z,94.88
2022-11-29T03:35:36.780Z,95.18
2022-11-29T03:38:25.383Z,95.05
2022-11-29T03:41:02.903Z,95.29
2022-11-29T03:43:42.890Z,95.54
2022-11-29T03:46:35.218Z,95.60
2022-11-29T03:49:11.528Z,95.75
2022-11-29T03:52:00.279Z,95.81
2022-11-29T03:54:46.970Z,95.88
2022-11-29T03:57:20.747Z,95.80
2022-11-29T03:59:56.633Z,95.76
2022-11-29T04:02:58.776Z,95.78
2022-11-29T04:05:29.862Z,96.16
2022-11-29T04:08:21.085Z,96.30
2022-11-29T04:11:07.981Z,96.26
2022-11-29T04:14:03.864Z,96.24
2022-11-29T04:17:15.015Z,96.27
2022-11-29T04:20:01.640Z,96.17
2022-11-29T04:22:48.318Z,96.08
2022-11-29T04:25:17.214Z,95.87
2022-11-29T04:27:51.509Z,95.79
2022-11-29T04:30:27.157Z,95.87
2022-11-29T04:33:07.976Z,96.01
2022-11-29T04:35:56.368Z,95.89
2022-11-29T04:38:42.943Z,95.90
2022-11-29T04:41:54.347Z,95.84
2022-11-29T04:45:13.209Z,95.76
2022-11-29T04:48:08.764Z,95.76
2022-11-29T04:50:57.588Z,95.66
2022-11-29T04:53:53.960Z,95.63
2022-11-29T04:56:40.828Z,95.54
2022-11-29T04:59:42.790Z,95.49
2022-11-29T05:02:36.204Z,95.61
2022-11-29T05:05:29.495Z,95.70
2022-11-29T05:08:03.483Z,95.67
2022-11-29T05:10:59.683Z,95.85
2022-11-29T05:13:46.277Z,95.87
2022-11-29T05:16:40.201Z,95.83
2022-11-29T05:19:14.234Z,95.87
2022-11-29T05:21:53.740Z,96.05
2022-11-29T05:25:04.941Z,96.16
2022-11-29T05:27:49.947Z,96.20
2022-11-29T05:30:24.014Z,96.22
2022-11-29T05:33:28.056Z,96.35
2022-11-29T05:36:20.169Z,96.50
2022-11-29T05:38:57.379Z,96.48
2022-11-29T05:42:07.290Z,96.39
2022-11-29T05:44:46.411Z,96.35
2022-11-29T05:47:42.448Z,96.33
2022-11-29T05:50:18.822Z,96.41
2022-11-29T05:52:54.011Z,96.53
2022-11-29T05:55:45.086Z,96.63
2022-11-29T05:58:47.300Z,96.56
2022-11-29T06:01:26.258Z,96.51
2022-11-29T06:04:21.472Z,96.72
2022-11-29T06:06:55.617Z,97.01
2022-11-29T06:09:28.984Z,97.14
2022-11-29T06:12:35.848Z,97.10
2022-11-29T06:15:31.976Z,97.03
2022-11-29T06:18:25.415Z,97.00
2022-11-29T06:21:00.214Z,97.04
2022-11-29T06:23:47.275Z,96.98
2022-11-29T06:26:24.306Z,97.06
2022-11-29T06:29:19.191Z,97.07
2022-11-29T06:31:57.978Z,97.06
2022-11-29T06:35:03.339Z,97.12
2022-11-29T06:37:39.939Z,97.12
2022-11-29T06:40:16.056Z,97.30
2022-11-29T06:42:44.317Z,97.34
2022-11-29T06:45:14.696Z,97.53
2022-11-29T06:47:49.528Z,97.51
2022-11-29T06:50:41.211Z,97.51
2022-11-29T06:53:33.023Z,97.55
2022-11-29T06:56:19.576Z,97.62
2022-11-29T06:59:00.223Z,97.72
2022-11-29T07:02:21.108Z,97.84
2022-11-29T07:05:01.040Z,97.88
2022-11-29T07:07:29.372Z,97.93
2022-11-29T07:10:00.921Z,97.88
2022-11-29T07:12:29.212Z,97.98
2022-11-29T07:14:57.753Z,97.95
2022-11-29T07:17:44.447Z,98.02
2022-11-29T07:20:30.565Z,98.13
2022-11-29T07:23:17.000Z,98.03
2022-11-29T07:26:08.811Z,98.07
2022-11-29T07:29:06.018Z,98.15
2022-11-29T07:31:52.740Z,98.39
2022-11-29T07:34:47.745Z,98.55
2022-11-29T07:37:18.790Z,98.57
2022-11-29T07:39:59.326Z,98.67
2022-11-29T07:42:54.895Z,98.57
2022-11-29T07:45:32.076Z,98.48
2022-11-29T07:48:00.537Z,98.45
2022-11-29T07:50:29.945Z,98.48
2022-11-29T07:52:59.204Z,98.57
2022-11-29T07:55:27.708Z,98.55
2022-11-29T07:57:56.127Z,98.62
2022-11-29T08:00:24.406Z,98.73
2022-11-29T08:02:52.523Z,98.69
2022-11-29T08:05:20.854Z,98.65
2022-11-29T08:07:49.445Z,98.57
2022-11-29T08:10:17.940Z,98.60
2022-11-29T08:12:51.475Z,98.62
2022-11-29T08:15:21.360Z,98.63
2022-11-29T08:17:49.705Z,98.53
2022-11-29T08:20:17.951Z,98.26
2022-11-29T08:22:53.119Z,98.00
2022-11-29T08:25:21.130Z,98.02
2022-11-29T08:27:49.091Z,97.95
2022-11-29T08:30:19.000Z,98.01
2022-11-29T08:32:51.253Z,98.21
2022-11-29T08:35:21.194Z,98.19
2022-11-29T08:37:50.345Z,98.23
2022-11-29T08:40:18.601Z,98.36
2022-11-29T08:42:46.697Z,98.62
2022-11-29T08:45:17.627Z,98.71
2022-11-29T08:47:45.918Z,98.81
2022-11-29T08:50:16.709Z,98.87
2022-11-29T08:53:06.465Z,98.97
2022-11-29T08:55:37.726Z,99.08
2022-11-29T08:58:09.535Z,99.08
2022-11-29T09:00:38.282Z,99.15
2022-11-29T09:03:26.574Z,99.19
2022-11-29T09:05:57.734Z,98.88
2022-11-29T09:08:25.926Z,98.52
2022-11-29T09:10:55.158Z,98.47
2022-11-29T09:13:23.449Z,98.63
2022-11-29T09:15:52.191Z,98.91
2022-11-29T09:18:20.219Z,99.21
2022-11-29T09:20:48.603Z,99.49
2022-11-29T09:23:17.026Z,99.25
2022-11-29T09:25:49.839Z,98.62
2022-11-29T09:28:19.029Z,97.94
2022-11-29T09:30:47.246Z,97.48
2022-11-29T09:33:15.189Z,96.88
2022-11-29T09:35:43.240Z,95.71
2022-11-29T09:38:14.573Z,92.79
2022-11-29T09:40:50.085Z,90.69
2022-11-29T09:43:27.150Z,89.43
2022-11-29T09:46:16.321Z,90.24
2022-11-29T09:48:44.360Z,89.49
2022-11-29T09:51:28.113Z,88.97
2022-11-29T09:54:12.115Z,88.05
2022-11-29T09:56:47.339Z,86.55
2022-11-29T09:59:29.162Z,86.30
2022-11-29T10:02:20.873Z,83.46
2022-11-29T10:04:56.277Z,80.79
2022-11-29T10:07:32.924Z,80.18
2022-11-29T10:10:09.525Z,77.88
2022-11-29T10:12:52.486Z,77.35
2022-11-29T10:15:27.381Z,78.78
2022-11-29T10:18:21.090Z,77.12
2022-11-29T10:20:51.672Z,75.86
2022-11-29T10:23:24.426Z,76.46
2022-11-29T10:25:53.978Z,76.64
2022-11-29T10:28:30.718Z,76.60
2022-11-29T10:31:16.235Z,73.88
2022-11-29T10:33:45.487Z,71.16
2022-11-29T10:36:27.017Z,71.12
2022-11-29T10:39:03.144Z,71.02
2022-11-29T10:41:31.835Z,71.74
2022-11-29T10:44:00.497Z,71.16
2022-11-29T10:46:33.681Z,71.92
2022-11-29T10:49:10.478Z,69.05
2022-11-29T10:51:39.221Z,69.72
2022-11-29T10:54:29.380Z,69.09
2022-11-29T10:57:00.096Z,69.12
2022-11-29T10:59:32.562Z,68.58
2022-11-29T11:02:02.134Z,68.56
2022-11-29T11:04:33.587Z,68.19
2022-11-29T11:07:04.515Z,68.49
2022-11-29T11:09:33.159Z,65.96
2022-11-29T11:12:05.995Z,64.24
2022-11-29T11:14:38.961Z,64.67
2022-11-29T11:17:21.154Z,63.47
2022-11-29T11:20:01.482Z,63.75
2022-11-29T11:22:32.775Z,60.70
2022-11-29T11:25:06.141Z,61.99
2022-11-29T11:27:37.296Z,62.47
2022-11-29T11:30:07.512Z,60.70
2022-11-29T11:32:35.499Z,58.96
2022-11-29T11:35:23.534Z,59.07
2022-11-29T11:37:57.678Z,57.12
2022-11-29T11:40:30.541Z,56.61
2022-11-29T11:43:02.248Z,56.50
2022-11-29T11:45:35.525Z,58.25
2022-11-29T11:48:12.849Z,56.53
2022-11-29T11:50:43.566Z,56.15
2022-11-29T11:53:35.890Z,56.04
2022-11-29T11:56:10.651Z,55.69
2022-11-29T11:58:44.635Z,55.58
2022-11-29T12:01:12.600Z,55.04
2022-11-29T12:03:48.024Z,55.31
2022-11-29T12:06:38.108Z,55.63
2022-11-29T12:09:09.959Z,55.57
2022-11-29T12:12:00.226Z,54.38
2022-11-29T12:14:57.402Z,53.92
2022-11-29T12:17:35.618Z,53.78
2022-11-29T12:20:15.929Z,53.91
2022-11-29T12:22:57.296Z,55.18
2022-11-29T12:25:34.524Z,54.47
2022-11-29T12:28:04.105Z,55.03
2022-11-29T12:30:33.303Z,53.57
2022-11-29T12:33:25.426Z,54.17
2022-11-29T12:36:06.942Z,54.71
2022-11-29T12:39:04.011Z,54.12
2022-11-29T12:41:55.290Z,53.17
2022-11-29T12:45:00.849Z,53.57
2022-11-29T12:48:02.441Z,54.21
2022-11-29T12:50:43.446Z,53.19
2022-11-29T12:53:24.003Z,53.06
2022-11-29T12:56:11.153Z,53.61
2022-11-29T12:58:59.924Z,52.76
2022-11-29T13:01:43.088Z,52.78
2022-11-29T13:04:25.419Z,53.09
2022-11-29T13:07:11.129Z,52.46
2022-11-29T13:10:17.808Z,51.19
2022-11-29T13:12:54.042Z,50.49
2022-11-29T13:15:45.930Z,51.05
2022-11-29T13:18:33.786Z,51.75
2022-11-29T13:21:11.776Z,51.82
2022-11-29T13:26:40.244Z,50.59
2022-11-29T13:29:15.000Z,50.12
2022-11-29T13:31:45.843Z,50.31
2022-11-29T13:34:27.171Z,51.05
2022-11-29T13:37:33.541Z,51.89
2022-11-29T13:40:21.967Z,52.15
2022-11-29T13:43:30.334Z,52.41
2022-11-29T13:46:16.408Z,52.50
2022-11-29T13:48:50.873Z,52.20
2022-11-29T13:51:41.256Z,51.98
2022-11-29T13:54:32.361Z,52.06
2022-11-29T13:57:06.310Z,52.66
2022-11-29T13:59:44.140Z,53.10
2022-11-29T14:02:28.968Z,53.75
2022-11-29T14:04:57.277Z,54.32
2022-11-29T14:07:25.621Z,54.70
2022-11-29T14:10:04.294Z,55.17
2022-11-29T14:12:43.203Z,55.51
2022-11-29T14:15:11.154Z,55.87
2022-11-29T14:17:51.574Z,56.06
2022-11-29T14:20:25.435Z,56.39
2022-11-29T14:23:05.570Z,56.85
2022-11-29T14:25:52.702Z,57.33
2022-11-29T14:28:21.462Z,57.63
2022-11-29T14:30:58.434Z,58.26
2022-11-29T14:33:55.527Z,58.72
2022-11-29T14:36:54.796Z,59.38
2022-11-29T14:39:47.159Z,59.87
2022-11-29T14:42:20.867Z,60.38
2022-11-29T14:44:53.373Z,60.91
2022-11-29T14:47:31.690Z,61.23
2022-11-29T14:50:04.272Z,61.56
2022-11-29T14:52:50.926Z,61.80
2022-11-29T14:55:24.997Z,62.24
2022-11-29T14:57:54.744Z,62.61
2022-11-29T15:00:27.081Z,62.90
2022-11-29T15:03:00.983Z,63.26
2022-11-29T15:05:37.171Z,63.79
2022-11-29T15:08:46.478Z,64.19
2022-11-29T15:11:37.667Z,64.56
2022-11-29T15:14:16.407Z,65.08
2022-11-29T15:17:13.974Z,66.00
2022-11-29T15:20:03.783Z,66.49
2022-11-29T15:22:58.570Z,66.58
2022-11-29T15:25:33.363Z,66.77
2022-11-29T15:28:04.456Z,67.21
2022-11-29T15:30:42.922Z,67.48
2022-11-29T15:33:25.642Z,67.90
2022-11-29T15:35:56.975Z,68.88
2022-11-29T15:38:25.506Z,69.75
2022-11-29T15:40:55.324Z,70.99
2022-11-29T15:43:37.832Z,71.46
2022-11-29T15:46:06.580Z,71.44
2022-11-29T15:48:35.041Z,71.98
2022-11-29T15:51:06.373Z,72.63
2022-11-29T15:53:49.601Z,72.84
2022-11-29T15:56:36.161Z,73.79
2022-11-29T15:59:15.186Z,74.38
2022-11-29T16:01:46.872Z,74.65
2022-11-29T16:04:20.629Z,74.94
2022-11-29T16:06:49.916Z,74.96
2022-11-29T16:09:27.957Z,75.11
2022-11-29T16:11:57.503Z,74.70
2022-11-29T16:14:30.762Z,74.48
2022-11-29T16:17:01.452Z,74.64
2022-11-29T16:19:37.030Z,74.57
2022-11-29T16:22:16.188Z,74.69
2022-11-29T16:25:07.006Z,75.21
2022-11-29T16:27:36.505Z,76.24
2022-11-29T16:30:05.741Z,76.60
2022-11-29T16:32:42.644Z,77.16
2022-11-29T16:35:26.407Z,77.75
2022-11-29T16:37:56.758Z,77.71
2022-11-29T16:40:28.507Z,78.16
2022-11-29T16:43:41.154Z,78.22
2022-11-29T16:46:21.491Z,78.25
2022-11-29T16:48:50.981Z,78.82
2022-11-29T16:51:26.271Z,79.70
2022-11-29T16:53:55.953Z,79.59
2022-11-29T16:56:27.613Z,79.93
2022-11-29T16:59:20.661Z,79.89
2022-11-29T17:01:49.011Z,79.79
2022-11-29T17:04:23.808Z,80.15
2022-11-29T17:06:55.036Z,80.73
2022-11-29T17:09:28.978Z,81.20
2022-11-29T17:12:01.186Z,81.30
2022-11-29T17:14:30.321Z,80.98
2022-11-29T17:17:00.940Z,81.04
2022-11-29T17:19:30.385Z,81.14
2022-11-29T17:21:58.842Z,81.26
2022-11-29T17:24:26.951Z,81.98
2022-11-29T17:26:55.214Z,82.08
2022-11-29T17:29:23.942Z,82.08
2022-11-29T17:31:53.301Z,82.14
2022-11-29T17:34:21.779Z,82.19
2022-11-29T17:36:52.388Z,82.41
2022-11-29T17:39:21.740Z,82.39
2022-11-29T17:41:49.917Z,81.99
2022-11-29T17:44:18.211Z,81.59
2022-11-29T17:46:46.469Z,82.00
2022-11-29T17:49:14.622Z,82.71
2022-11-29T17:51:51.659Z,82.99
2022-11-29T17:54:22.068Z,83.03
2022-11-29T17:56:50.592Z,82.84
2022-11-29T17:59:18.855Z,82.46
2022-11-29T18:01:50.070Z,82.93
2022-11-29T18:04:18.446Z,83.54
2022-11-29T18:06:50.182Z,84.35
2022-11-29T18:09:20.044Z,84.23
2022-11-29T18:11:50.364Z,84.34
2022-11-29T18:14:24.064Z,85.57
2022-11-29T18:16:52.819Z,86.09
2022-11-29T18:19:22.537Z,85.62
2022-11-29T18:21:51.834Z,85.37
2022-11-29T18:24:20.012Z,85.30
2022-11-29T18:26:48.193Z,85.04
2022-11-29T18:29:16.591Z,84.81
2022-11-29T18:31:46.326Z,85.75
2022-11-29T18:34:15.390Z,86.59
2022-11-29T18:36:45.978Z,86.61
2022-11-29T18:39:16.849Z,86.12
2022-11-29T18:41:48.652Z,85.81
2022-11-29T18:44:20.267Z,85.58
2022-11-29T18:46:49.209Z,85.84
2022-11-29T18:49:18.153Z,86.30
2022-11-29T18:51:47.588Z,86.77
2022-11-29T18:54:17.913Z,86.59
2022-11-29T18:56:46.653Z,86.38
2022-11-29T18:59:17.528Z,86.31
2022-11-29T19:01:48.057Z,86.57
2022-11-29T19:04:19.724Z,86.60
2022-11-29T19:06:48.204Z,86.99
2022-11-29T19:09:19.369Z,87.19
2022-11-29T19:11:49.580Z,87.14
2022-11-29T19:14:18.661Z,87.08
2022-11-29T19:16:49.166Z,86.96
2022-11-29T19:19:19.158Z,86.99
2022-11-29T19:21:47.855Z,87.01
2022-11-29T19:24:18.194Z,87.18
2022-11-29T19:26:49.777Z,87.46
2022-11-29T19:29:18.054Z,87.49
2022-11-29T19:31:46.054Z,87.81
2022-11-29T19:34:14.487Z,88.12
2022-11-29T19:36:43.953Z,88.40
2022-11-29T19:39:17.557Z,88.49
2022-11-29T19:41:47.620Z,88.89
2022-11-29T19:44:15.725Z,89.05
2022-11-29T19:46:47.036Z,89.32
2022-11-29T19:49:15.267Z,89.12
2022-11-29T19:51:44.565Z,89.00
2022-11-29T19:54:12.823Z,88.83
2022-11-29T19:56:41.099Z,88.63
2022-11-29T22:02:11.975Z,89.77
2022-11-29T22:21:35.148Z,89.54
2022-11-29T22:24:03.231Z,89.50
2022-11-29T22:26:31.398Z,89.45
2022-11-29T22:28:59.649Z,89.61
2022-11-29T22:31:27.729Z,89.82
2022-11-29T22:33:57.214Z,89.79
2022-11-29T22:36:26.406Z,90.04
2022-11-29T22:38:54.599Z,90.18
2022-11-29T22:41:22.966Z,90.13
2022-11-29T22:43:51.354Z,90.09
2022-11-29T22:46:24.876Z,90.06
2022-11-29T22:48:55.670Z,90.18
2022-11-29T22:51:30.617Z,90.16
2022-11-29T22:54:01.265Z,90.18
2022-11-29T22:56:32.372Z,90.50
2022-11-29T22:59:00.814Z,90.70
2022-11-29T23:01:31.135Z,90.83
2022-11-29T23:04:04.019Z,90.83
2022-11-29T23:06:34.380Z,90.98
2022-11-29T23:09:10.787Z,90.99
2022-11-29T23:11:38.877Z,90.93
2022-11-29T23:14:07.108Z,90.85
2022-11-29T23:16:35.139Z,90.97
2022-11-29T23:19:03.757Z,90.98
2022-11-29T23:21:37.657Z,91.12
2022-11-29T23:24:06.452Z,91.47
2022-11-29T23:26:39.026Z,91.41
2022-11-29T23:29:10.791Z,91.26
2022-11-29T23:31:39.714Z,91.20
2022-11-29T23:34:08.398Z,91.12
2022-11-29T23:36:36.478Z,91.29
2022-11-29T23:39:08.151Z,91.60
2022-11-29T23:41:36.988Z,91.73
2022-11-29T23:44:06.028Z,91.91
2022-11-29T23:46:35.528Z,92.13
2022-11-29T23:49:04.180Z,92.28
2022-11-29T23:51:32.419Z,92.55
2022-11-29T23:54:00.518Z,92.69
2022-11-29T23:56:28.917Z,92.57
2022-11-29T23:58:57.920Z,92.50
